createdAt,value
2023-04-27T00:04:11.893Z,83.73
2023-04-27T00:09:14.704Z,83.66
2023-04-27T00:14:17.025Z,84.20
2023-04-27T00:19:19.283Z,84.03
2023-04-27T00:24:21.364Z,84.08
2023-04-27T00:29:23.337Z,84.21
2023-04-27T00:34:25.963Z,84.54
2023-04-27T00:39:27.956Z,84.98
2023-04-27T00:44:30.263Z,84.24
2023-04-27T00:49:32.406Z,84.44
2023-04-27T00:54:35.307Z,84.87
2023-04-27T00:59:37.640Z,84.96
2023-04-27T01:04:39.802Z,85.18
2023-04-27T01:09:41.907Z,85.37
2023-04-27T01:14:44.099Z,85.36
2023-04-27T01:19:46.562Z,85.10
2023-04-27T01:24:48.748Z,84.70
2023-04-27T01:29:50.857Z,84.57
2023-04-27T01:34:52.981Z,84.61
2023-04-27T01:39:54.916Z,84.25
2023-04-27T01:44:56.748Z,84.36
2023-04-27T01:49:58.929Z,85.42
2023-04-27T01:55:00.978Z,85.48
2023-04-27T02:00:03.116Z,84.75
2023-04-27T02:05:07.521Z,83.67
2023-04-27T02:10:10.260Z,83.30
2023-04-27T02:15:12.454Z,82.67
2023-04-27T02:20:14.579Z,82.48
2023-04-27T02:25:16.623Z,81.71
2023-04-27T02:30:18.516Z,81.38
2023-04-27T02:35:21.157Z,80.83
2023-04-27T02:40:23.036Z,80.18
2023-04-27T02:45:25.018Z,79.19
2023-04-27T02:50:26.954Z,79.58
2023-04-27T02:55:28.865Z,78.47
2023-04-27T03:00:30.819Z,71.98
2023-04-27T03:05:32.709Z,65.45
2023-04-27T03:10:34.742Z,59.67
2023-04-27T03:15:36.689Z,53.43
2023-04-27T03:20:38.671Z,48.94
2023-04-27T03:25:40.606Z,45.42
2023-04-27T03:30:42.206Z,44.83
2023-04-27T03:35:44.191Z,40.81
2023-04-27T03:40:46.056Z,38.82
2023-04-27T03:45:48.213Z,37.01
2023-04-27T03:50:50.159Z,35.30
2023-04-27T03:55:52.076Z,33.35
2023-04-27T04:00:53.974Z,31.92
2023-04-27T04:05:56.093Z,31.27
2023-04-27T04:10:57.991Z,29.94
2023-04-27T04:16:04.585Z,28.77
2023-04-27T04:21:06.922Z,27.93
2023-04-27T04:26:08.945Z,28.53
2023-04-27T04:31:10.925Z,33.15
2023-04-27T04:36:12.896Z,36.75
2023-04-27T04:41:14.819Z,38.45
2023-04-27T04:46:16.878Z,39.36
2023-04-27T04:51:18.692Z,40.14
2023-04-27T04:56:20.373Z,40.84
2023-04-27T05:01:22.284Z,41.67
2023-04-27T05:06:24.069Z,42.03
2023-04-27T05:11:25.978Z,42.48
2023-04-27T05:16:27.713Z,43.25
2023-04-27T05:21:29.550Z,43.07
2023-04-27T05:26:31.468Z,35.11
2023-04-27T05:31:33.449Z,28.73
2023-04-27T05:36:35.512Z,26.35
2023-04-27T05:41:37.405Z,24.28
2023-04-27T05:46:39.280Z,23.04
2023-04-27T05:51:41.325Z,21.68
2023-04-27T05:56:43.345Z,20.61
2023-04-27T06:01:45.536Z,20.28
2023-04-27T06:06:47.549Z,18.56
2023-04-27T06:11:49.404Z,18.13
2023-04-27T06:16:51.245Z,17.20
2023-04-27T06:21:54.264Z,17.11
2023-04-27T06:26:56.096Z,16.84
2023-04-27T06:31:57.958Z,16.38
2023-04-27T06:36:59.840Z,15.62
2023-04-27T06:42:02.020Z,15.99
2023-04-27T06:47:03.939Z,16.20
2023-04-27T06:52:05.894Z,16.03
2023-04-27T06:57:07.763Z,16.31
2023-04-27T07:02:09.628Z,15.23
2023-04-27T07:07:11.486Z,15.07
2023-04-27T07:12:13.359Z,14.13
2023-04-27T07:17:15.238Z,14.29
2023-04-27T07:22:17.131Z,13.91
2023-04-27T07:27:18.987Z,14.68
2023-04-27T07:32:21.002Z,13.87
2023-04-27T07:37:23.205Z,12.90
2023-04-27T07:42:25.264Z,12.62
2023-04-27T07:47:27.189Z,11.49
2023-04-27T07:52:29.127Z,13.34
2023-04-27T07:57:30.981Z,17.18
2023-04-27T08:02:32.967Z,20.29
2023-04-27T08:07:38.360Z,22.84
2023-04-27T08:12:43.099Z,24.43
2023-04-27T08:17:45.148Z,26.35
2023-04-27T08:22:47.076Z,27.39
2023-04-27T08:27:48.905Z,27.17
2023-04-27T08:32:51.399Z,28.30
2023-04-27T08:37:53.388Z,29.16
2023-04-27T08:42:59.276Z,29.27
2023-04-27T08:48:01.144Z,30.29
2023-04-27T08:53:03.100Z,31.13
2023-04-27T08:58:04.909Z,31.00
2023-04-27T09:03:06.861Z,31.27
2023-04-27T09:08:08.847Z,31.47
2023-04-27T09:13:10.709Z,31.29
2023-04-27T09:18:15.762Z,32.65
2023-04-27T09:23:34.083Z,33.15
2023-04-27T09:28:38.634Z,33.34
2023-04-27T09:33:40.547Z,35.45
2023-04-27T09:38:42.151Z,34.72
2023-04-27T09:43:44.253Z,34.85
2023-04-27T09:48:46.207Z,34.55
2023-04-27T09:53:52.791Z,35.64
2023-04-27T09:59:04.729Z,35.59
2023-04-27T10:04:30.188Z,34.02
2023-04-27T10:09:41.595Z,33.21
2023-04-27T10:14:56.715Z,33.66
2023-04-27T10:20:06.152Z,33.46
2023-04-27T10:25:18.925Z,33.84
2023-04-27T10:30:22.712Z,33.65
2023-04-27T10:35:34.653Z,32.80
2023-04-27T10:40:37.188Z,32.67
2023-04-27T10:45:39.300Z,33.85
2023-04-27T10:50:41.157Z,34.87
2023-04-27T10:55:43.004Z,34.50
2023-04-27T11:00:44.992Z,34.74
2023-04-27T11:05:48.078Z,34.69
2023-04-27T11:10:51.064Z,32.39
2023-04-27T11:15:56.976Z,34.16
2023-04-27T11:21:12.161Z,34.51
2023-04-27T11:26:17.746Z,34.56
2023-04-27T11:31:19.689Z,34.92
2023-04-27T11:36:22.878Z,34.63
2023-04-27T11:41:35.811Z,34.80
2023-04-27T11:46:38.194Z,35.01
2023-04-27T11:51:40.287Z,34.82
2023-04-27T11:56:42.983Z,35.47
2023-04-27T12:01:45.000Z,36.72
2023-04-27T12:06:46.791Z,37.11
2023-04-27T12:11:48.474Z,37.91
2023-04-27T12:16:50.500Z,37.90
2023-04-27T12:21:52.792Z,37.62
2023-04-27T12:26:54.694Z,37.85
2023-04-27T12:31:56.324Z,37.50
2023-04-27T12:36:58.261Z,37.93
2023-04-27T12:42:00.177Z,38.02
2023-04-27T12:47:02.365Z,37.17
2023-04-27T12:52:04.498Z,36.79
2023-04-27T12:57:06.440Z,36.35
2023-04-27T13:02:08.261Z,36.99
2023-04-27T13:07:10.294Z,36.65
2023-04-27T13:12:12.246Z,36.73
2023-04-27T13:17:14.147Z,36.58
2023-04-27T13:22:15.996Z,36.42
2023-04-27T13:27:18.035Z,35.64
2023-04-27T13:32:20.303Z,34.80
2023-04-27T13:37:22.250Z,34.69
2023-04-27T13:42:24.213Z,34.17
2023-04-27T13:47:25.910Z,35.61
2023-04-27T13:52:27.763Z,35.94
2023-04-27T13:57:29.750Z,36.64
2023-04-27T14:02:31.516Z,37.14
2023-04-27T14:07:33.633Z,37.08
2023-04-27T14:12:36.248Z,36.83
2023-04-27T14:17:38.486Z,37.06
2023-04-27T14:22:40.167Z,37.28
2023-04-27T14:27:42.044Z,37.39
2023-04-27T14:32:44.135Z,37.47
2023-04-27T14:37:46.414Z,37.77
2023-04-27T14:42:48.530Z,37.27
2023-04-27T14:47:52.199Z,37.30
2023-04-27T14:52:56.226Z,37.42
2023-04-27T14:57:58.166Z,37.41
2023-04-27T15:03:00.264Z,37.00
2023-04-27T15:08:02.247Z,37.85
2023-04-27T15:13:04.230Z,38.16
2023-04-27T15:18:06.294Z,38.37
2023-04-27T15:23:07.939Z,38.63
2023-04-27T15:28:09.704Z,38.60
2023-04-27T15:33:12.259Z,38.52
2023-04-27T15:38:15.056Z,38.61
2023-04-27T15:43:16.997Z,38.79
2023-04-27T15:48:18.834Z,38.84
2023-04-27T15:53:20.742Z,38.94
2023-04-27T15:58:22.623Z,39.31
2023-04-27T16:03:24.627Z,39.56
2023-04-27T16:08:26.344Z,40.09
2023-04-27T16:13:28.285Z,39.77
2023-04-27T16:18:30.491Z,39.67
2023-04-27T16:23:32.420Z,40.01
2023-04-27T16:28:34.983Z,40.23
2023-04-27T16:33:37.074Z,40.59
2023-04-27T16:38:39.392Z,40.84
2023-04-27T16:43:41.566Z,41.02
2023-04-27T16:48:43.468Z,41.31
2023-04-27T16:53:45.350Z,41.62
2023-04-27T16:58:47.241Z,41.51
2023-04-27T17:03:49.173Z,41.82
2023-04-27T17:08:51.303Z,42.29
2023-04-27T17:13:53.282Z,42.18
2023-04-27T17:18:55.315Z,42.16
2023-04-27T17:23:57.204Z,42.40
2023-04-27T17:28:58.992Z,42.10
2023-04-27T17:34:01.935Z,42.65
2023-04-27T17:39:03.969Z,43.02
2023-04-27T17:44:05.899Z,43.27
2023-04-27T17:49:07.860Z,43.62
2023-04-27T17:54:09.808Z,43.66
2023-04-27T17:59:11.753Z,44.06
2023-04-27T18:04:13.770Z,44.15
2023-04-27T18:09:15.877Z,44.27
2023-04-27T18:14:18.130Z,44.42
2023-04-27T18:19:20.444Z,44.67
2023-04-27T18:24:22.376Z,44.74
2023-04-27T18:29:24.361Z,45.03
2023-04-27T18:34:26.380Z,45.01
2023-04-27T18:39:28.326Z,45.24
2023-04-27T18:44:30.307Z,45.56
2023-04-27T18:49:32.322Z,45.51
2023-04-27T18:54:34.649Z,45.72
2023-04-27T18:59:38.123Z,46.05
2023-04-27T19:04:43.048Z,46.09
2023-04-27T19:09:52.490Z,46.43
2023-04-27T19:14:54.478Z,46.74
2023-04-27T19:19:56.676Z,46.85
2023-04-27T19:24:58.618Z,46.90
2023-04-27T19:30:00.697Z,47.04
2023-04-27T19:35:02.782Z,47.29
2023-04-27T19:40:06.618Z,47.62
2023-04-27T19:45:08.738Z,47.75
2023-04-27T19:50:11.523Z,48.00
2023-04-27T19:55:13.657Z,48.17
2023-04-27T20:00:15.858Z,48.49
2023-04-27T20:05:18.028Z,48.49
2023-04-27T20:10:20.150Z,48.77
2023-04-27T20:15:22.611Z,48.89
2023-04-27T20:20:24.550Z,49.31
2023-04-27T20:25:26.608Z,49.33
2023-04-27T20:30:28.501Z,49.97
2023-04-27T20:35:30.510Z,49.89
2023-04-27T20:40:32.385Z,49.70
2023-04-27T20:45:34.442Z,49.90
2023-04-27T20:50:38.718Z,50.31
2023-04-27T20:55:41.017Z,50.63
2023-04-27T21:00:42.913Z,50.77
2023-04-27T21:05:45.033Z,50.94
2023-04-27T21:10:46.942Z,51.35
2023-04-27T21:15:48.859Z,51.96
2023-04-27T21:20:50.782Z,52.13
2023-04-27T21:25:52.677Z,52.43
2023-04-27T21:30:54.670Z,52.62
2023-04-27T21:35:56.760Z,52.76
2023-04-27T21:40:58.931Z,52.90
2023-04-27T21:46:01.064Z,53.45
2023-04-27T21:51:03.158Z,53.65
2023-04-27T21:56:05.368Z,53.78
2023-04-27T22:01:07.336Z,53.90
2023-04-27T22:06:09.221Z,54.38
2023-04-27T22:11:11.137Z,54.76
2023-04-27T22:16:13.883Z,55.08
2023-04-27T22:21:16.178Z,55.68
2023-04-27T22:26:18.190Z,56.83
2023-04-27T22:31:20.186Z,56.74
2023-04-27T22:36:22.152Z,57.12
2023-04-27T22:41:24.224Z,57.66
2023-04-27T22:46:26.240Z,58.08
2023-04-27T22:51:28.212Z,58.25
2023-04-27T22:56:30.064Z,58.38
2023-04-27T23:01:32.117Z,58.12
2023-04-27T23:06:34.149Z,58.91
2023-04-27T23:11:36.185Z,58.87
2023-04-27T23:16:38.221Z,59.87
2023-04-27T23:21:40.248Z,61.05
2023-04-27T23:26:42.189Z,61.90
2023-04-27T23:31:44.233Z,61.64
2023-04-27T23:36:46.221Z,61.37
2023-04-27T23:41:48.128Z,61.29
2023-04-27T23:46:50.071Z,61.76
2023-04-27T23:51:52.674Z,61.84
2023-04-27T23:56:54.671Z,61.73
